createdAt,value
2023-04-19T00:01:42.926Z,7.20
2023-04-19T00:04:12.346Z,7.23
2023-04-19T00:06:42.073Z,6.83
2023-04-19T00:09:09.813Z,6.77
2023-04-19T00:11:37.635Z,6.87
2023-04-19T00:14:05.412Z,6.10
2023-04-19T00:16:34.280Z,6.67
2023-04-19T00:19:02.320Z,6.50
2023-04-19T00:21:31.671Z,6.10
2023-04-19T00:23:59.549Z,5.90
2023-04-19T00:26:27.323Z,5.33
2023-04-19T00:28:55.865Z,6.03
2023-04-19T00:31:23.720Z,5.23
2023-04-19T00:33:51.569Z,5.30
2023-04-19T00:36:19.441Z,5.37
2023-04-19T00:38:48.647Z,5.37
2023-04-19T00:41:17.222Z,5.83
2023-04-19T00:43:45.040Z,5.30
2023-04-19T00:46:12.833Z,5.47
2023-04-19T00:48:40.603Z,5.50
2023-04-19T00:51:10.425Z,5.23
2023-04-19T00:53:39.091Z,6.20
2023-04-19T00:56:08.774Z,5.73
2023-04-19T00:58:37.074Z,5.73
2023-04-19T01:01:04.878Z,5.70
2023-04-19T01:03:32.928Z,6.33
2023-04-19T01:06:00.918Z,5.50
2023-04-19T01:08:28.688Z,6.87
2023-04-19T01:10:56.493Z,6.37
2023-04-19T01:13:25.630Z,6.10
2023-04-19T01:15:53.406Z,5.93
2023-04-19T01:18:21.876Z,6.00
2023-04-19T01:20:49.715Z,6.40
2023-04-19T01:23:18.915Z,5.63
2023-04-19T01:25:47.750Z,5.77
2023-04-19T01:28:15.627Z,5.23
2023-04-19T01:30:43.989Z,6.03
2023-04-19T01:33:11.812Z,5.77
2023-04-19T01:35:39.588Z,6.17
2023-04-19T01:38:07.365Z,5.50
2023-04-19T01:40:36.460Z,5.73
2023-04-19T01:43:04.480Z,5.77
2023-04-19T01:45:33.960Z,5.97
2023-04-19T01:48:03.171Z,4.73
2023-04-19T01:50:30.985Z,5.83
2023-04-19T01:52:59.019Z,5.40
2023-04-19T01:55:26.855Z,5.43
2023-04-19T01:57:56.067Z,5.37
2023-04-19T02:00:24.219Z,5.13
2023-04-19T02:02:52.137Z,5.17
2023-04-19T02:05:20.137Z,5.00
2023-04-19T02:07:47.922Z,4.50
2023-04-19T02:10:15.682Z,5.00
2023-04-19T02:12:43.577Z,5.13
2023-04-19T02:15:13.319Z,4.50
2023-04-19T02:17:41.571Z,4.63
2023-04-19T02:20:10.885Z,4.70
2023-04-19T02:22:38.684Z,4.37
2023-04-19T02:25:08.316Z,4.10
2023-04-19T02:27:36.469Z,4.67
2023-04-19T02:30:04.381Z,4.53
2023-04-19T02:32:34.597Z,4.40
2023-04-19T02:35:02.408Z,4.37
2023-04-19T02:37:30.271Z,4.53
2023-04-19T02:39:57.978Z,3.80
2023-04-19T02:42:25.765Z,4.03
2023-04-19T02:44:53.591Z,4.00
2023-04-19T02:47:23.873Z,4.23
2023-04-19T02:49:53.176Z,3.47
2023-04-19T02:52:23.702Z,3.70
2023-04-19T02:54:51.482Z,3.57
2023-04-19T02:57:21.511Z,3.53
2023-04-19T02:59:49.268Z,3.47
2023-04-19T03:02:17.146Z,2.90
2023-04-19T03:04:44.927Z,3.20
2023-04-19T03:07:14.092Z,3.23
2023-04-19T03:09:42.004Z,3.33
2023-04-19T03:12:09.699Z,3.80
2023-04-19T03:14:37.529Z,4.10
2023-04-19T03:17:05.309Z,4.70
2023-04-19T03:19:33.090Z,5.43
2023-04-19T03:22:01.066Z,5.40
2023-04-19T03:24:31.640Z,5.67
2023-04-19T03:26:59.538Z,5.90
2023-04-19T03:29:27.356Z,5.70
2023-04-19T03:31:55.129Z,5.30
2023-04-19T03:34:22.965Z,6.20
2023-04-19T03:36:50.838Z,6.80
2023-04-19T03:39:18.622Z,6.30
2023-04-19T03:41:47.814Z,6.43
2023-04-19T03:44:15.713Z,6.97
2023-04-19T03:46:43.690Z,6.93
2023-04-19T03:49:11.618Z,7.10
2023-04-19T03:51:39.369Z,7.10
2023-04-19T03:54:07.174Z,7.23
2023-04-19T03:56:34.940Z,6.93
2023-04-19T03:59:04.066Z,7.37
2023-04-19T04:01:31.860Z,7.27
2023-04-19T04:04:00.999Z,7.30
2023-04-19T04:06:30.128Z,7.57
2023-04-19T04:08:57.881Z,7.90
2023-04-19T04:11:25.947Z,7.83
2023-04-19T04:13:53.650Z,8.30
2023-04-19T04:16:24.311Z,7.67
2023-04-19T04:18:52.098Z,7.47
2023-04-19T04:21:19.847Z,7.50
2023-04-19T04:23:49.861Z,7.10
2023-04-19T04:26:17.782Z,7.47
2023-04-19T04:28:45.949Z,7.63
2023-04-19T04:31:13.845Z,7.47
2023-04-19T04:33:43.099Z,7.43
2023-04-19T04:36:12.089Z,7.20
2023-04-19T04:38:39.901Z,7.97
2023-04-19T04:41:08.781Z,7.93
2023-04-19T04:43:36.650Z,7.43
2023-04-19T04:46:04.557Z,7.67
2023-04-19T04:48:32.528Z,8.23
2023-04-19T04:51:01.704Z,7.60
2023-04-19T04:53:29.716Z,7.67
2023-04-19T04:55:57.494Z,7.17
2023-04-19T04:58:25.286Z,7.47
2023-04-19T05:00:53.691Z,7.10
2023-04-19T05:03:21.603Z,7.83
2023-04-19T05:05:49.716Z,6.80
2023-04-19T05:08:18.873Z,6.50
2023-04-19T05:10:46.586Z,7.07
2023-04-19T05:13:14.375Z,7.00
2023-04-19T05:15:42.154Z,6.77
2023-04-19T05:18:10.035Z,7.40
2023-04-19T05:20:37.902Z,7.00
2023-04-19T05:23:05.899Z,6.50
2023-04-19T05:25:35.076Z,7.10
2023-04-19T05:28:03.561Z,7.20
2023-04-19T05:30:31.331Z,7.17
2023-04-19T05:32:59.151Z,7.30
2023-04-19T05:35:27.072Z,6.60
2023-04-19T05:37:54.852Z,7.97
2023-04-19T05:40:23.909Z,6.50
2023-04-19T05:42:53.064Z,6.97
2023-04-19T05:45:22.207Z,7.37
2023-04-19T05:47:50.101Z,6.80
2023-04-19T05:50:20.589Z,6.80
2023-04-19T05:52:48.615Z,7.33
2023-04-19T05:55:16.356Z,6.33
2023-04-19T05:57:44.071Z,6.43
2023-04-19T06:00:14.413Z,7.10
2023-04-19T06:02:44.049Z,6.20
2023-04-19T06:05:12.387Z,5.97
2023-04-19T06:07:44.017Z,7.53
2023-04-19T06:10:22.048Z,6.70
2023-04-19T06:12:49.871Z,6.20
2023-04-19T06:15:19.190Z,5.57
2023-04-19T06:17:47.004Z,5.57
2023-04-19T06:20:14.874Z,5.80
2023-04-19T06:22:46.549Z,5.17
2023-04-19T06:25:15.693Z,5.23
2023-04-19T06:27:43.433Z,6.27
2023-04-19T06:30:11.706Z,4.83
2023-04-19T06:32:40.905Z,4.83
2023-04-19T06:35:09.568Z,4.50
2023-04-19T06:37:37.282Z,4.87
2023-04-19T06:40:07.097Z,4.33
2023-04-19T06:42:34.896Z,4.17
2023-04-19T06:45:02.856Z,3.97
2023-04-19T06:47:31.655Z,3.47
2023-04-19T06:50:01.597Z,3.53
2023-04-19T06:52:29.995Z,3.40
2023-04-19T06:54:57.894Z,3.30
2023-04-19T06:57:26.167Z,3.90
2023-04-19T06:59:56.498Z,3.43
2023-04-19T07:02:24.362Z,3.60
2023-04-19T07:04:55.456Z,3.60
2023-04-19T07:07:24.640Z,3.30
2023-04-19T07:09:52.431Z,2.73
2023-04-19T07:12:20.294Z,2.63
2023-04-19T07:14:48.166Z,3.03
2023-04-19T07:17:18.240Z,3.07
2023-04-19T07:19:48.726Z,2.80
2023-04-19T07:22:16.655Z,2.60
2023-04-19T07:24:45.852Z,2.70
2023-04-19T07:27:14.409Z,2.60
2023-04-19T07:29:42.317Z,2.73
2023-04-19T07:32:10.298Z,2.87
2023-04-19T07:34:39.095Z,2.60
2023-04-19T07:37:06.901Z,2.70
2023-04-19T07:39:34.707Z,2.80
2023-04-19T07:42:04.051Z,2.50
2023-04-19T07:44:32.135Z,2.60
2023-04-19T07:47:01.384Z,2.50
2023-04-19T07:49:33.831Z,2.00
2023-04-19T07:52:02.981Z,2.63
2023-04-19T07:54:32.219Z,1.93
2023-04-19T07:57:00.383Z,2.03
2023-04-19T07:59:33.440Z,1.90
2023-04-19T08:02:02.618Z,2.20
2023-04-19T08:04:30.934Z,2.67
2023-04-19T08:06:59.384Z,2.10
2023-04-19T08:09:27.206Z,2.00
2023-04-19T08:11:55.042Z,2.33
2023-04-19T08:14:34.831Z,1.97
2023-04-19T08:17:23.353Z,2.17
2023-04-19T08:19:52.673Z,2.50
2023-04-19T08:22:21.589Z,2.33
2023-04-19T08:24:51.435Z,2.10
2023-04-19T08:27:19.563Z,1.90
2023-04-19T08:29:47.504Z,1.87
2023-04-19T08:32:16.988Z,2.00
2023-04-19T08:34:44.795Z,2.13
2023-04-19T08:37:12.616Z,2.00
2023-04-19T08:39:40.721Z,1.90
2023-04-19T08:42:18.307Z,1.83
2023-04-19T08:45:25.370Z,1.33
2023-04-19T08:47:59.980Z,1.90
2023-04-19T08:53:08.568Z,1.77
2023-04-19T08:56:06.817Z,1.53
2023-04-19T08:58:54.807Z,2.00
2023-04-19T09:01:33.823Z,1.90
2023-04-19T09:04:26.601Z,2.00
2023-04-19T09:06:53.294Z,1.70
2023-04-19T09:11:53.661Z,1.90
2023-04-19T09:14:22.902Z,1.83
2023-04-19T09:16:52.175Z,1.70
2023-04-19T09:19:24.683Z,1.80
2023-04-19T09:21:54.754Z,1.80
2023-04-19T09:27:14.346Z,1.87
2023-04-19T09:29:42.229Z,2.10
2023-04-19T09:32:10.079Z,1.30
2023-04-19T09:34:52.779Z,1.70
2023-04-19T09:37:38.493Z,1.70
2023-04-19T09:40:23.514Z,1.70
2023-04-19T09:48:02.762Z,1.97
2023-04-19T09:50:33.453Z,2.23
2023-04-19T09:53:03.809Z,1.90
2023-04-19T09:55:44.738Z,1.77
2023-04-19T09:58:21.646Z,2.00
2023-04-19T10:00:57.147Z,1.97
2023-04-19T10:03:29.692Z,2.20
2023-04-19T10:06:02.149Z,2.17
2023-04-19T10:08:38.749Z,1.83
2023-04-19T10:11:07.270Z,1.60
2023-04-19T10:13:35.096Z,1.97
2023-04-19T10:16:15.514Z,1.80
2023-04-19T10:18:44.056Z,1.60
2023-04-19T10:21:13.896Z,2.10
2023-04-19T10:23:41.969Z,1.80
2023-04-19T10:26:09.782Z,2.00
2023-04-19T10:28:38.171Z,1.70
2023-04-19T10:31:06.544Z,1.77
2023-04-19T10:33:36.923Z,2.17
2023-04-19T10:36:05.800Z,1.67
2023-04-19T10:38:39.362Z,1.83
2023-04-19T10:41:14.432Z,2.10
2023-04-19T10:43:46.270Z,1.67
2023-04-19T10:46:18.569Z,1.73
2023-04-19T10:48:55.628Z,1.70
2023-04-19T10:51:25.012Z,2.30
2023-04-19T10:53:55.889Z,1.90
2023-04-19T10:57:05.344Z,1.83
2023-04-19T10:59:34.157Z,1.50
2023-04-19T11:02:02.877Z,1.90
2023-04-19T11:04:59.154Z,2.00
2023-04-19T11:07:27.395Z,1.63
2023-04-19T11:09:56.626Z,2.73
2023-04-19T11:12:24.355Z,2.17
2023-04-19T11:14:54.378Z,2.40
2023-04-19T11:17:25.958Z,2.00
2023-04-19T11:19:58.304Z,2.00
2023-04-19T11:22:27.918Z,1.70
2023-04-19T11:24:57.069Z,2.07
2023-04-19T11:27:25.727Z,1.90
2023-04-19T11:29:53.574Z,1.83
2023-04-19T11:32:22.810Z,1.90
2023-04-19T11:34:50.616Z,2.37
2023-04-19T11:37:20.474Z,2.13
2023-04-19T11:39:48.445Z,1.77
2023-04-19T11:42:21.741Z,2.23
2023-04-19T11:44:51.512Z,1.97
2023-04-19T11:47:19.822Z,2.00
2023-04-19T11:49:49.046Z,2.47
2023-04-19T11:52:22.513Z,1.90
2023-04-19T11:54:50.740Z,2.03
2023-04-19T11:57:30.282Z,2.20
2023-04-19T12:00:11.958Z,1.67
2023-04-19T12:02:41.497Z,1.70
2023-04-19T12:05:11.183Z,1.87
2023-04-19T12:07:40.161Z,1.80
2023-04-19T12:10:12.437Z,2.07
2023-04-19T12:12:41.724Z,2.10
2023-04-19T12:15:10.455Z,2.10
2023-04-19T12:17:59.466Z,1.93
2023-04-19T12:20:32.819Z,2.10
2023-04-19T12:23:00.823Z,2.30
2023-04-19T12:25:31.864Z,2.20
2023-04-19T12:28:01.359Z,2.37
2023-04-19T12:30:29.169Z,2.20
2023-04-19T12:32:57.217Z,2.03
2023-04-19T12:35:27.390Z,2.23
2023-04-19T12:37:55.991Z,2.27
2023-04-19T12:40:24.527Z,1.83
2023-04-19T12:42:52.544Z,1.97
2023-04-19T12:45:21.851Z,1.90
2023-04-19T12:47:50.191Z,2.23
2023-04-19T12:50:18.043Z,2.00
2023-04-19T12:52:46.298Z,2.03
2023-04-19T12:55:14.286Z,1.93
2023-04-19T12:57:42.205Z,2.20
2023-04-19T13:00:11.427Z,2.00
2023-04-19T13:02:40.783Z,2.10
2023-04-19T13:05:09.454Z,2.03
2023-04-19T13:07:37.269Z,2.07
2023-04-19T13:10:06.115Z,1.80
2023-04-19T13:12:33.968Z,1.97
2023-04-19T13:15:04.095Z,1.73
2023-04-19T13:17:32.451Z,1.77
2023-04-19T13:20:01.631Z,1.93
2023-04-19T13:22:29.482Z,1.90
2023-04-19T13:24:57.356Z,2.00
2023-04-19T13:27:25.156Z,2.30
2023-04-19T13:29:53.094Z,2.30
2023-04-19T13:32:21.006Z,1.97
2023-04-19T13:34:48.876Z,1.70
2023-04-19T13:37:18.142Z,1.93
2023-04-19T13:39:45.956Z,1.80
2023-04-19T13:42:14.701Z,1.77
2023-04-19T13:44:42.577Z,2.00
2023-04-19T13:47:10.415Z,1.77
2023-04-19T13:49:38.225Z,1.60
2023-04-19T13:52:06.046Z,1.90
2023-04-19T13:54:35.224Z,2.00
2023-04-19T13:57:03.133Z,1.70
2023-04-19T13:59:30.863Z,1.80
2023-04-19T14:01:59.715Z,1.90
2023-04-19T14:04:28.039Z,2.03
2023-04-19T14:06:55.967Z,2.53
2023-04-19T14:09:23.726Z,2.03
2023-04-19T14:11:53.534Z,2.57
2023-04-19T14:14:22.139Z,1.90
2023-04-19T14:16:50.224Z,2.07
2023-04-19T14:19:18.047Z,2.03
2023-04-19T14:21:45.832Z,2.30
2023-04-19T14:24:13.653Z,2.07
2023-04-19T14:26:41.445Z,2.23
2023-04-19T14:29:10.622Z,2.20
2023-04-19T14:31:38.448Z,2.17
2023-04-19T14:34:06.801Z,2.70
2023-04-19T14:36:34.647Z,2.57
2023-04-19T14:39:02.527Z,2.27
2023-04-19T14:41:30.336Z,2.07
2023-04-19T14:43:58.549Z,2.20
2023-04-19T14:46:27.878Z,2.13
2023-04-19T14:48:57.160Z,2.20
2023-04-19T14:51:24.883Z,1.83
2023-04-19T14:53:52.644Z,2.30
2023-04-19T14:56:20.408Z,2.10
2023-04-19T14:58:48.179Z,2.20
2023-04-19T15:01:16.488Z,2.10
2023-04-19T15:03:45.935Z,2.47
2023-04-19T15:06:14.154Z,2.33
2023-04-19T15:08:43.112Z,2.50
2023-04-19T15:11:10.933Z,2.13
2023-04-19T15:13:38.680Z,4.00
2023-04-19T15:16:07.783Z,2.30
2023-04-19T15:18:35.679Z,2.63
2023-04-19T15:21:05.815Z,2.00
2023-04-19T15:23:33.664Z,2.87
2023-04-19T15:26:01.572Z,2.00
2023-04-19T15:28:29.568Z,1.70
2023-04-19T15:30:59.822Z,2.63
2023-04-19T15:33:28.083Z,2.23
2023-04-19T15:35:56.810Z,2.10
2023-04-19T15:38:27.757Z,1.83
2023-04-19T15:40:55.777Z,1.80
2023-04-19T15:43:24.063Z,1.73
2023-04-19T15:45:51.924Z,2.40
2023-04-19T15:48:21.185Z,2.30
2023-04-19T15:50:49.080Z,1.80
2023-04-19T15:53:17.148Z,1.70
2023-04-19T15:55:47.935Z,2.00
2023-04-19T15:58:16.518Z,1.60
2023-04-19T16:00:44.275Z,1.90
2023-04-19T16:03:12.670Z,2.50
2023-04-19T16:05:41.096Z,1.60
2023-04-19T16:08:10.008Z,2.70
2023-04-19T16:10:37.755Z,1.93
2023-04-19T16:13:07.210Z,2.03
2023-04-19T16:15:35.022Z,2.17
2023-04-19T16:18:02.838Z,1.73
2023-04-19T16:20:30.736Z,2.50
2023-04-19T16:22:58.559Z,2.30
2023-04-19T16:25:26.763Z,3.93
2023-04-19T16:27:54.550Z,3.63
2023-04-19T16:30:26.494Z,2.23
2023-04-19T16:32:55.679Z,2.37
2023-04-19T16:35:23.664Z,3.20
2023-04-19T16:37:55.931Z,2.20
2023-04-19T16:40:25.426Z,3.37
2023-04-19T16:42:53.239Z,2.27
2023-04-19T16:45:21.476Z,2.93
2023-04-19T16:47:50.723Z,3.77
2023-04-19T16:50:19.033Z,2.20
2023-04-19T16:52:46.916Z,2.20
2023-04-19T16:55:15.764Z,3.97
2023-04-19T16:57:43.643Z,2.47
2023-04-19T17:00:13.248Z,2.67
2023-04-19T17:02:41.135Z,3.13
2023-04-19T17:05:12.542Z,3.27
2023-04-19T17:07:40.513Z,2.93
2023-04-19T17:10:09.526Z,2.93
2023-04-19T17:12:37.328Z,2.37
2023-04-19T17:15:06.240Z,2.30
2023-04-19T17:17:34.303Z,2.37
2023-04-19T17:20:02.253Z,2.30
2023-04-19T17:22:31.458Z,2.60
2023-04-19T17:24:59.258Z,2.50
2023-04-19T17:27:27.070Z,2.50
2023-04-19T17:29:54.856Z,2.20
2023-04-19T17:32:22.651Z,2.37
2023-04-19T17:34:50.402Z,2.43
2023-04-19T17:37:18.256Z,2.60
2023-04-19T17:39:47.380Z,2.57
2023-04-19T17:42:15.121Z,4.17
2023-04-19T17:44:43.973Z,2.80
2023-04-19T17:47:11.721Z,2.97
2023-04-19T17:49:39.597Z,2.90
2023-04-19T17:52:07.402Z,3.50
2023-04-19T17:54:35.315Z,3.00
2023-04-19T17:57:04.681Z,3.10
2023-04-19T17:59:35.063Z,3.00
2023-04-19T18:02:02.909Z,3.03
2023-04-19T18:04:31.029Z,2.87
2023-04-19T18:06:59.525Z,3.13
2023-04-19T18:09:27.374Z,2.70
2023-04-19T18:11:55.223Z,3.00
2023-04-19T18:14:24.401Z,3.10
2023-04-19T18:16:52.202Z,2.90
2023-04-19T18:19:20.017Z,3.10
2023-04-19T18:21:47.831Z,3.00
2023-04-19T18:24:15.762Z,3.23
2023-04-19T18:26:44.614Z,3.63
2023-04-19T18:29:13.087Z,3.10
2023-04-19T18:31:42.318Z,2.93
2023-04-19T18:34:12.457Z,3.33
2023-04-19T18:36:40.454Z,4.20
2023-04-19T18:39:08.401Z,4.63
2023-04-19T18:41:36.469Z,4.67
2023-04-19T18:46:35.324Z,5.00
2023-04-19T18:49:04.476Z,3.90
2023-04-19T18:51:32.869Z,4.07
2023-04-19T18:54:00.707Z,3.80
2023-04-19T18:57:04.498Z,3.80
2023-04-19T18:59:16.735Z,3.40
2023-04-19T19:01:45.833Z,3.77
2023-04-19T19:04:43.020Z,3.80
2023-04-19T19:07:22.781Z,3.43
2023-04-19T19:09:57.197Z,3.50
2023-04-19T19:12:25.052Z,2.77
2023-04-19T19:14:52.890Z,2.83
2023-04-19T19:17:21.229Z,2.53
2023-04-19T19:19:50.463Z,2.63
2023-04-19T19:22:27.530Z,3.30
2023-04-19T19:24:56.758Z,2.20
2023-04-19T19:27:27.470Z,2.10
2023-04-19T19:29:56.127Z,2.23
2023-04-19T19:32:24.826Z,2.40
2023-04-19T19:34:58.950Z,2.70
2023-04-19T19:37:31.327Z,2.50
2023-04-19T19:40:04.254Z,2.20
2023-04-19T19:45:19.804Z,1.97
2023-04-19T19:47:49.900Z,2.07
2023-04-19T19:52:53.358Z,1.87
2023-04-19T19:55:21.715Z,2.37
2023-04-19T20:00:44.002Z,3.90
2023-04-19T20:03:28.446Z,2.30
2023-04-19T20:06:57.114Z,2.43
2023-04-19T20:09:00.539Z,2.40
2023-04-19T20:11:34.105Z,2.50
2023-04-19T20:14:02.998Z,3.37
2023-04-19T20:16:30.809Z,2.17
2023-04-19T20:19:01.226Z,2.80
2023-04-19T20:21:31.253Z,2.97
2023-04-19T20:24:01.077Z,2.40
2023-04-19T20:26:28.965Z,2.20
2023-04-19T20:28:57.670Z,2.30
2023-04-19T20:31:26.378Z,1.90
2023-04-19T20:33:56.345Z,2.20
2023-04-19T20:36:25.446Z,2.30
2023-04-19T20:38:56.948Z,2.17
2023-04-19T20:41:26.060Z,2.63
2023-04-19T20:43:56.895Z,1.60
2023-04-19T20:46:26.027Z,1.57
2023-04-19T20:48:55.180Z,1.73
2023-04-19T20:51:23.178Z,2.37
2023-04-19T20:53:51.541Z,1.90
2023-04-19T20:56:20.854Z,1.93
2023-04-19T20:58:48.625Z,1.90
2023-04-19T21:01:17.670Z,1.53
2023-04-19T21:03:46.188Z,2.17
2023-04-19T21:06:15.337Z,1.53
2023-04-19T21:08:43.260Z,1.53
2023-04-19T21:11:11.105Z,2.30
2023-04-19T21:13:40.560Z,1.63
2023-04-19T21:16:08.768Z,1.80
2023-04-19T21:18:36.597Z,1.50
2023-04-19T21:21:04.376Z,1.50
2023-04-19T21:23:32.186Z,1.73
2023-04-19T21:26:02.507Z,2.20
2023-04-19T21:28:30.417Z,1.90
2023-04-19T21:30:59.891Z,1.60
2023-04-19T21:33:27.809Z,1.83
2023-04-19T21:35:55.957Z,1.70
2023-04-19T21:38:23.774Z,1.77
2023-04-19T21:40:53.029Z,1.93
2023-04-19T21:43:20.830Z,2.47
2023-04-19T21:45:48.602Z,3.43
2023-04-19T21:48:17.845Z,1.50
2023-04-19T21:50:45.660Z,2.23
2023-04-19T21:53:13.417Z,1.53
2023-04-19T21:55:42.591Z,1.60
2023-04-19T21:58:10.609Z,1.60
2023-04-19T22:00:38.439Z,1.60
2023-04-19T22:03:06.355Z,1.70
2023-04-19T22:05:36.260Z,1.73
2023-04-19T22:08:05.739Z,1.60
2023-04-19T22:10:34.721Z,2.00
2023-04-19T22:13:04.769Z,2.40
2023-04-19T22:15:33.053Z,1.93
2023-04-19T22:18:04.014Z,1.60
2023-04-19T22:20:33.737Z,1.70
2023-04-19T22:23:02.970Z,2.17
2023-04-19T22:25:30.901Z,1.40
2023-04-19T22:27:58.609Z,2.13
2023-04-19T22:30:26.488Z,1.63
2023-04-19T22:32:54.261Z,1.90
2023-04-19T22:35:22.980Z,1.63
2023-04-19T22:37:51.016Z,1.70
2023-04-19T22:40:20.229Z,2.07
2023-04-19T22:42:48.036Z,2.00
2023-04-19T22:45:15.915Z,2.27
2023-04-19T22:47:43.642Z,2.50
2023-04-19T22:50:11.947Z,2.10
2023-04-19T22:52:40.839Z,2.30
2023-04-19T22:55:10.188Z,2.27
2023-04-19T22:57:39.422Z,2.40
2023-04-19T23:00:10.459Z,2.37
2023-04-19T23:02:39.172Z,2.37
2023-04-19T23:05:07.705Z,2.43
2023-04-19T23:07:35.654Z,2.10
2023-04-19T23:10:04.153Z,2.00
2023-04-19T23:12:33.574Z,2.30
2023-04-19T23:15:03.958Z,1.83
2023-04-19T23:17:39.329Z,1.73
2023-04-19T23:20:11.121Z,2.10
2023-04-19T23:22:39.049Z,2.17
2023-04-19T23:25:07.757Z,2.00
2023-04-19T23:27:35.731Z,2.37
2023-04-19T23:30:05.595Z,1.90
2023-04-19T23:32:33.451Z,2.30
2023-04-19T23:35:01.504Z,2.10
2023-04-19T23:37:29.329Z,1.90
2023-04-19T23:39:57.162Z,2.03
2023-04-19T23:42:24.917Z,1.80
2023-04-19T23:44:55.666Z,2.00
2023-04-19T23:47:26.339Z,1.80
2023-04-19T23:49:54.108Z,2.00
2023-04-19T23:52:22.734Z,2.97
2023-04-19T23:54:50.686Z,1.90
2023-04-19T23:57:19.552Z,2.30
2023-04-19T23:59:47.394Z,2.60
